Time;durP1;ratioP1;P1;durP2;ratioP2;P2;SDS_P1;SDS_P2;PMS_P1;PMS_P2;Temp;Humidity;BMP_temperature;BMP_pressure;BME280_temperature;BME280_humidity;BME280_pressure;Samples;Min_cycle;Max_cycle;Signal;HPM_P1;HPM_P2
2021/07/13 00:02:44;;;;;;;11.73;8.32;;;;;;;28.13;41.89;100481.91;3963533;32;15153729;-77
2021/07/13 00:05:13;;;;;;;11.60;7.85;;;;;;;28.13;41.89;100481.91;4428159;32;20060;-77
2021/07/13 00:07:41;;;;;;;15.00;8.05;;;;;;;28.10;41.65;100483.78;4431699;32;20480;-77
2021/07/13 00:10:08;;;;;;;11.63;7.70;;;;;;;27.77;42.63;100481.75;4428815;32;20034;-77
2021/07/13 00:12:35;;;;;;;16.15;8.35;;;;;;;27.94;42.19;100487.91;4431079;32;20073;-77
2021/07/13 00:15:02;;;;;;;12.35;8.88;;;;;;;27.53;42.93;100487.87;4428247;32;20038;-77
2021/07/13 00:17:28;;;;;;;13.32;9.65;;;;;;;27.47;42.77;100478.56;4430019;32;20085;-77
2021/07/13 00:19:54;;;;;;;12.45;8.80;;;;;;;27.58;42.86;100489.09;4426911;32;20076;-77
2021/07/13 00:22:19;;;;;;;12.68;8.80;;;;;;;27.55;42.89;100487.31;4430250;32;20099;-77
2021/07/13 00:24:45;;;;;;;14.43;9.13;;;;;;;27.54;42.97;100483.66;4430216;32;20021;-77
2021/07/13 00:27:10;;;;;;;14.23;9.73;;;;;;;27.45;43.13;100487.03;4431633;32;20038;-77
2021/07/13 00:29:36;;;;;;;11.88;8.88;;;;;;;27.52;43.22;100482.66;4429703;32;20038;-77
2021/07/13 00:32:02;;;;;;;13.27;9.52;;;;;;;27.48;43.20;100485.13;4431134;32;20390;-77
2021/07/13 00:34:28;;;;;;;15.68;9.70;;;;;;;27.54;43.33;100489.44;4433137;32;20106;-77
2021/07/13 00:55:10;;;;;;;19.83;10.73;;;;;;;27.76;42.37;100505.47;4426003;32;20069;-80
2021/07/13 00:57:37;;;;;;;19.17;11.63;;;;;;;27.88;42.71;100498.84;4428022;32;20096;-79
2021/07/13 01:00:07;;;;;;;18.23;11.85;;;;;;;27.55;43.34;100499.66;4430559;32;20070;-77
2021/07/13 01:02:34;;;;;;;19.67;11.18;;;;;;;27.75;43.05;100504.69;4428491;32;20084;-77
2021/07/13 01:05:01;;;;;;;16.08;10.43;;;;;;;27.70;42.98;100505.56;4428257;32;20078;-77
2021/07/13 01:15:45;;;;;;;14.43;10.30;;;;;;;28.42;42.03;100527.66;3985736;32;15022381;-77
2021/07/13 01:18:19;;;;;;;17.45;9.45;;;;;;;28.42;42.03;100527.66;4428979;32;20111;-77
2021/07/13 01:28:42;;;;;;;12.57;7.95;;;;;;;28.33;41.54;100533.94;3971687;32;15023603;-77
2021/07/13 01:31:12;;;;;;;10.20;7.47;;;;;;;28.33;41.54;100533.94;4427629;32;20033;-78
2021/07/13 01:33:41;;;;;;;18.42;8.80;;;;;;;27.93;42.24;100532.66;4427559;32;20382;-77
2021/07/13 01:36:15;;;;;;;9.32;6.30;;;;;;;27.78;42.63;100538.25;4426504;32;20086;-78
2021/07/13 01:38:42;;;;;;;10.10;7.05;;;;;;;27.75;42.41;100539.38;4427090;32;20430;-78
2021/07/13 01:41:14;;;;;;;9.82;6.90;;;;;;;27.52;43.09;100541.22;4425500;32;20105;-77
2021/07/13 01:43:43;;;;;;;11.88;6.03;;;;;;;28.00;42.21;100542.72;4424065;32;20041;-78
2021/07/13 01:46:11;;;;;;;9.80;6.22;;;;;;;27.89;42.45;100543.78;4424744;32;20367;-77
2021/07/13 01:48:39;;;;;;;8.57;5.60;;;;;;;27.92;42.14;100541.87;4423411;32;20492;-78
2021/07/13 01:51:07;;;;;;;6.80;4.82;;;;;;;27.79;42.40;100547.72;4428811;32;20021;-77
2021/07/13 01:53:34;;;;;;;7.47;5.22;;;;;;;27.76;42.38;100540.91;4427766;32;20378;-77
2021/07/13 01:56:00;;;;;;;7.68;5.60;;;;;;;27.66;42.25;100541.97;4426377;32;20038;-77
2021/07/13 01:58:28;;;;;;;6.50;5.30;;;;;;;27.33;42.51;100546.41;4423048;32;20053;-77
2021/07/13 02:01:08;;;;;;;7.72;5.70;;;;;;;27.77;41.95;100542.50;4423363;32;20120;-77
2021/07/13 02:03:34;;;;;;;7.03;5.53;;;;;;;27.95;41.46;100549.44;4412599;32;20659;-77
2021/07/13 02:06:02;;;;;;;6.87;5.47;;;;;;;27.53;41.97;100554.38;4411795;32;20142;-77
2021/07/13 02:08:28;;;;;;;6.15;5.12;;;;;;;27.51;42.12;100548.38;4410083;32;20064;-77
2021/07/13 02:10:54;;;;;;;9.90;5.62;;;;;;;27.59;41.79;100536.88;4411381;32;20187;-77
2021/07/13 02:13:20;;;;;;;7.72;5.47;;;;;;;27.52;42.10;100546.25;4406500;32;20042;-77
2021/07/13 02:15:46;;;;;;;8.65;5.43;;;;;;;27.52;42.04;100549.16;4408489;32;20115;-77
2021/07/13 02:18:13;;;;;;;7.25;5.55;;;;;;;27.64;41.91;100550.44;4411987;32;20123;-77
2021/07/13 02:20:39;;;;;;;10.85;6.07;;;;;;;27.67;42.00;100546.44;4410646;32;20021;-77
2021/07/13 02:23:06;;;;;;;9.13;5.75;;;;;;;27.20;42.52;100547.22;4412025;32;20463;-77
2021/07/13 02:25:33;;;;;;;8.63;6.32;;;;;;;27.54;42.27;100549.34;4409404;32;20101;-77
2021/07/13 02:28:19;;;;;;;11.10;6.03;;;;;;;27.51;42.28;100539.69;4411598;32;20117;-77
2021/07/13 02:30:47;;;;;;;;;;;;;;;27.77;41.76;100538.81;4409809;32;20041;-77
2021/07/13 02:33:19;;;;;;;6.82;5.62;;;;;;;28.06;41.24;100541.25;4411420;32;20281;-77
2021/07/13 02:35:51;;;;;;;6.62;5.68;;;;;;;27.96;41.40;100536.50;4408833;32;20104;-77
2021/07/13 02:38:19;;;;;;;7.25;5.22;;;;;;;27.85;41.63;100536.78;4408995;32;20082;-77
2021/07/13 02:40:47;;;;;;;9.45;5.72;;;;;;;27.88;41.82;100532.75;4401136;32;20030;-77
2021/07/13 02:43:15;;;;;;;8.38;5.60;;;;;;;27.92;41.77;100533.22;4399059;32;20670;-77
2021/07/13 02:45:42;;;;;;;7.22;5.18;;;;;;;27.77;42.03;100536.72;4400831;32;20027;-77
2021/07/13 02:48:11;;;;;;;9.23;5.25;;;;;;;27.91;41.75;100534.53;4398980;32;20478;-77
2021/07/13 02:50:38;;;;;;;13.52;6.07;;;;;;;27.68;42.10;100524.84;4401857;32;20547;-77
2021/07/13 02:53:06;;;;;;;11.10;6.85;;;;;;;27.78;42.38;100528.78;4400652;32;20108;-77
2021/07/13 02:55:33;;;;;;;14.48;7.65;;;;;;;27.79;42.34;100528.22;4399954;32;20060;-77
2021/07/13 02:58:03;;;;;;;10.93;7.55;;;;;;;27.96;42.21;100530.72;4400191;32;20049;-77
2021/07/13 03:00:30;;;;;;;12.73;8.45;;;;;;;28.04;41.96;100529.44;4402179;32;20050;-77
2021/07/13 03:02:56;;;;;;;14.02;8.20;;;;;;;27.13;43.60;100521.87;4400965;32;20093;-77
2021/07/13 03:05:24;;;;;;;10.25;7.25;;;;;;;27.60;42.75;100526.88;4399720;32;20110;-77
2021/07/13 03:07:52;;;;;;;12.88;8.10;;;;;;;27.83;42.47;100522.09;4399666;32;20085;-77
2021/07/13 03:10:24;;;;;;;12.75;8.25;;;;;;;27.88;42.41;100524.87;4401094;32;20148;-77
2021/07/13 03:12:52;;;;;;;13.00;8.20;;;;;;;27.86;42.42;100526.78;4398734;32;20022;-77
2021/07/13 03:15:21;;;;;;;12.00;7.75;;;;;;;27.86;42.60;100518.09;4398721;32;20100;-78
2021/07/13 03:17:47;;;;;;;11.48;7.97;;;;;;;27.83;42.48;100520.00;4401346;32;20083;-77
2021/07/13 03:20:13;;;;;;;10.68;7.37;;;;;;;27.68;42.86;100519.84;4399045;32;20089;-78
2021/07/13 03:22:42;;;;;;;10.27;6.68;;;;;;;27.84;42.55;100524.44;4399995;32;20090;-78
2021/07/13 03:25:13;;;;;;;9.82;6.25;;;;;;;27.70;43.02;100530.84;4399266;32;20074;-78
2021/07/13 03:27:40;;;;;;;8.25;6.00;;;;;;;27.83;42.85;100531.56;4399950;32;20077;-78
2021/07/13 03:30:07;;;;;;;7.72;5.60;;;;;;;27.80;42.76;100535.59;4401100;32;20057;-78
2021/07/13 03:32:35;;;;;;;11.43;6.55;;;;;;;27.85;42.88;100534.66;4398971;32;20411;-77
2021/07/13 03:35:07;;;;;;;9.25;5.65;;;;;;;27.93;43.13;100540.53;4398704;32;20321;-78
2021/07/13 03:37:34;;;;;;;8.05;5.93;;;;;;;27.62;43.65;100538.66;4400432;32;20119;-78
2021/07/13 03:40:01;;;;;;;7.28;5.65;;;;;;;27.61;43.42;100532.09;4398087;32;20027;-78
2021/07/13 03:42:26;;;;;;;7.12;5.28;;;;;;;27.68;43.45;100540.09;4397693;32;20060;-77
2021/07/13 03:44:52;;;;;;;7.72;5.03;;;;;;;27.49;43.72;100530.03;4397403;32;20086;-77
2021/07/13 03:47:19;;;;;;;5.53;4.00;;;;;;;27.57;43.43;100542.44;4399619;32;20158;-78
2021/07/13 03:49:48;;;;;;;5.62;3.83;;;;;;;27.48;43.54;100542.94;4397242;32;20038;-77
2021/07/13 03:52:14;;;;;;;5.60;4.07;;;;;;;27.69;43.22;100544.50;4400411;32;20685;-78
2021/07/13 03:54:41;;;;;;;6.30;3.12;;;;;;;27.54;43.53;100540.69;4400331;32;20078;-77
2021/07/13 03:57:07;;;;;;;6.57;3.60;;;;;;;27.63;43.33;100540.19;4403794;32;20437;-77
2021/07/13 03:59:33;;;;;;;4.25;3.03;;;;;;;27.61;43.38;100540.00;4398742;32;20038;-77
2021/07/13 04:01:59;;;;;;;7.60;3.10;;;;;;;27.76;43.20;100540.16;4398923;32;20050;-78
2021/07/13 04:04:25;;;;;;;3.35;2.90;;;;;;;27.60;43.26;100533.44;4397935;32;20069;-77
2021/07/13 04:06:51;;;;;;;7.72;2.78;;;;;;;27.55;43.53;100537.22;4401653;32;20367;-77
2021/07/13 04:09:17;;;;;;;4.62;3.10;;;;;;;27.25;44.28;100539.78;4397986;32;20035;-77
2021/07/13 04:11:42;;;;;;;5.32;3.17;;;;;;;27.63;43.97;100532.31;4398746;32;20030;-77
2021/07/13 04:14:08;;;;;;;4.07;3.25;;;;;;;27.34;44.58;100536.44;4399827;32;20073;-77
2021/07/13 04:16:34;;;;;;;6.37;3.47;;;;;;;27.42;44.51;100543.06;4399870;32;20096;-77
2021/07/13 04:19:00;;;;;;;4.82;2.97;;;;;;;27.32;45.27;100544.88;4401069;32;20042;-78
2021/07/13 04:21:27;;;;;;;3.67;2.97;;;;;;;27.49;44.96;100550.28;4401478;32;20076;-78
2021/07/13 04:23:53;;;;;;;6.32;3.80;;;;;;;27.25;45.33;100542.69;4399325;32;20091;-78
2021/07/13 04:26:19;;;;;;;5.85;3.33;;;;;;;27.32;45.38;100555.66;4397453;32;20414;-78
2021/07/13 04:28:45;;;;;;;5.22;2.80;;;;;;;27.19;45.75;100559.34;4399610;32;20078;-77
2021/07/13 04:31:11;;;;;;;4.87;2.97;;;;;;;27.13;45.70;100565.22;4397591;32;20395;-77
2021/07/13 04:33:36;;;;;;;6.90;2.30;;;;;;;27.19;46.06;100559.34;4398960;32;20022;-77
2021/07/13 04:36:02;;;;;;;4.00;2.00;;;;;;;27.09;45.88;100561.88;4396833;32;20591;-77
2021/07/13 04:38:29;;;;;;;3.28;1.87;;;;;;;26.85;46.27;100559.25;4398743;32;20066;-77
2021/07/13 04:40:55;;;;;;;3.67;1.90;;;;;;;26.86;45.80;100563.72;4398601;32;20160;-78
2021/07/13 04:43:21;;;;;;;2.70;2.20;;;;;;;26.69;46.59;100557.47;4397781;32;20088;-78
2021/07/13 04:45:47;;;;;;;2.87;2.10;;;;;;;26.75;46.81;100563.16;4399271;32;20097;-78
2021/07/13 04:48:13;;;;;;;3.53;1.83;;;;;;;26.60;46.68;100563.66;4400062;32;20359;-78
2021/07/13 04:50:39;;;;;;;5.62;1.87;;;;;;;26.79;46.48;100566.50;4398003;32;20068;-78
2021/07/13 04:53:05;;;;;;;2.37;1.48;;;;;;;26.87;46.24;100573.91;4398338;32;20049;-78
2021/07/13 04:55:32;;;;;;;1.87;1.52;;;;;;;26.22;47.01;100570.16;4397973;32;20461;-79
2021/07/13 04:57:58;;;;;;;5.10;1.30;;;;;;;26.05;47.32;100573.34;4399150;32;20516;-78
2021/07/13 05:00:24;;;;;;;2.47;1.50;;;;;;;26.33;46.80;100578.63;4398093;32;20101;-78
2021/07/13 05:02:50;;;;;;;3.60;1.70;;;;;;;26.14;47.28;100572.16;4396874;32;20066;-78
2021/07/13 05:05:17;;;;;;;4.72;1.50;;;;;;;26.28;47.20;100579.50;4397233;32;20457;-78
2021/07/13 05:07:45;;;;;;;5.60;1.60;;;;;;;26.70;46.36;100584.25;4398795;32;20025;-78
2021/07/13 05:10:12;;;;;;;1.90;1.50;;;;;;;26.84;46.23;100597.34;4397753;32;20010;-78
2021/07/13 05:12:39;;;;;;;2.12;1.40;;;;;;;26.87;45.95;100588.34;4395925;32;20103;-78
2021/07/13 05:15:07;;;;;;;2.80;1.40;;;;;;;26.77;45.83;100592.25;4394835;32;20043;-78
2021/07/13 05:17:33;;;;;;;3.62;1.42;;;;;;;26.71;46.15;100594.47;4399231;32;20111;-78
2021/07/13 05:19:58;;;;;;;2.60;1.50;;;;;;;26.81;45.73;100593.47;4398196;32;20138;-78
2021/07/13 05:22:24;;;;;;;2.22;1.45;;;;;;;27.08;45.22;100600.00;4397738;32;20070;-77
2021/07/13 05:24:50;;;;;;;2.10;1.40;;;;;;;27.12;45.00;100598.34;4399493;32;20083;-78
2021/07/13 05:27:17;;;;;;;2.58;1.42;;;;;;;26.96;44.97;100592.91;4397812;32;20038;-77
2021/07/13 05:29:43;;;;;;;2.90;1.33;;;;;;;27.18;44.53;100601.09;4397587;32;20074;-78
2021/07/13 05:32:09;;;;;;;5.35;1.60;;;;;;;27.31;44.54;100598.25;4397179;32;20119;-77
2021/07/13 05:34:35;;;;;;;3.42;2.12;;;;;;;27.29;44.43;100600.91;4399148;32;20106;-78
2021/07/13 05:37:01;;;;;;;3.00;1.85;;;;;;;27.40;44.37;100605.66;4397938;32;20050;-78
2021/07/13 05:39:27;;;;;;;4.28;1.87;;;;;;;27.36;44.26;100611.00;4398906;32;20034;-77
2021/07/13 05:41:55;;;;;;;1.92;1.40;;;;;;;27.47;44.36;100607.84;4396995;32;20487;-78
2021/07/13 05:44:21;;;;;;;2.60;1.42;;;;;;;26.65;46.09;100611.09;4397466;32;20156;-78
2021/07/13 05:46:47;;;;;;;3.62;1.60;;;;;;;26.54;46.01;100602.66;4398730;32;20116;-77
2021/07/13 05:49:12;;;;;;;2.40;1.60;;;;;;;26.70;45.50;100611.03;4398705;32;20068;-77
2021/07/13 05:51:38;;;;;;;2.50;1.23;;;;;;;26.52;45.99;100608.97;4394972;32;20096;-77
2021/07/13 05:54:04;;;;;;;1.70;1.20;;;;;;;26.66;45.85;100604.78;4396801;32;20128;-77
2021/07/13 05:56:30;;;;;;;2.12;1.30;;;;;;;26.95;45.43;100614.47;4398894;32;20066;-77
2021/07/13 05:58:56;;;;;;;1.80;1.33;;;;;;;26.96;45.25;100616.00;4398345;32;20074;-77
2021/07/13 06:01:22;;;;;;;1.95;1.42;;;;;;;27.10;44.99;100614.69;4396680;32;20408;-77
2021/07/13 06:03:48;;;;;;;4.22;1.58;;;;;;;27.04;45.63;100626.34;4396006;32;20104;-78
2021/07/13 06:06:13;;;;;;;5.15;1.50;;;;;;;26.90;45.81;100624.78;4397725;32;20030;-78
2021/07/13 06:08:39;;;;;;;3.53;1.50;;;;;;;27.02;45.48;100628.22;4397340;32;20094;-77
2021/07/13 06:11:05;;;;;;;3.03;1.90;;;;;;;27.05;45.62;100625.00;4397115;32;20502;-78
2021/07/13 06:13:32;;;;;;;4.37;1.60;;;;;;;27.00;45.96;100628.78;4399366;32;20702;-77
2021/07/13 06:15:58;;;;;;;4.07;2.20;;;;;;;26.30;47.07;100628.78;4401261;32;20034;-77
2021/07/13 06:18:24;;;;;;;5.80;2.72;;;;;;;26.53;46.47;100632.81;4400275;32;20074;-77
2021/07/13 06:20:50;;;;;;;3.80;2.40;;;;;;;26.36;47.57;100633.13;4399642;32;20148;-77
2021/07/13 06:23:16;;;;;;;3.35;2.53;;;;;;;26.54;46.76;100643.81;4400937;32;20030;-77
2021/07/13 06:25:42;;;;;;;4.55;3.22;;;;;;;26.67;46.86;100654.66;4402704;32;20129;-79
2021/07/13 06:28:09;;;;;;;5.60;3.55;;;;;;;26.41;47.30;100649.56;4399983;32;20669;-80
2021/07/13 06:30:34;;;;;;;7.47;3.10;;;;;;;26.56;47.44;100652.72;4400773;32;20135;-80
2021/07/13 06:33:00;;;;;;;4.12;2.92;;;;;;;26.76;46.96;100654.22;4397844;32;20082;-80
2021/07/13 06:35:26;;;;;;;5.20;3.40;;;;;;;26.89;46.76;100657.09;4396773;32;20447;-77
2021/07/13 06:37:52;;;;;;;6.00;3.55;;;;;;;26.94;46.78;100656.22;4391913;32;20460;-77
2021/07/13 06:40:18;;;;;;;6.30;3.90;;;;;;;27.00;46.68;100660.56;4395768;32;20309;-77
2021/07/13 06:42:44;;;;;;;5.45;3.40;;;;;;;26.99;46.72;100664.00;4397307;32;20142;-78
2021/07/13 06:45:10;;;;;;;6.10;4.03;;;;;;;26.62;46.84;100664.97;4395553;32;20070;-78
2021/07/13 06:47:36;;;;;;;9.35;4.32;;;;;;;26.54;47.19;100669.78;4393283;32;20099;-79
2021/07/13 06:50:04;;;;;;;5.62;3.17;;;;;;;26.49;47.56;100678.56;4389688;32;20434;-81
2021/07/13 06:52:30;;;;;;;6.47;3.15;;;;;;;26.63;47.09;100680.19;4394003;32;20185;-80
2021/07/13 06:54:56;;;;;;;5.72;2.47;;;;;;;26.46;47.01;100686.22;4389815;32;20030;-80
2021/07/13 06:57:23;;;;;;;5.65;3.05;;;;;;;26.09;47.58;100688.41;4388970;32;20096;-78
2021/07/13 06:59:49;;;;;;;6.22;3.58;;;;;;;26.40;47.51;100690.50;4388542;32;20135;-78
2021/07/13 07:02:15;;;;;;;6.57;3.72;;;;;;;26.29;47.46;100687.81;4390241;32;20203;-77
2021/07/13 07:04:41;;;;;;;6.75;3.15;;;;;;;26.53;47.37;100693.44;4389059;32;20045;-79
2021/07/13 07:07:07;;;;;;;8.75;4.22;;;;;;;26.37;46.86;100695.28;4389502;32;20095;-79
2021/07/13 07:09:33;;;;;;;11.05;4.28;;;;;;;26.54;47.14;100695.00;4389034;32;20082;-78
2021/07/13 07:11:59;;;;;;;10.23;4.65;;;;;;;26.35;47.33;100702.94;4390591;32;20154;-80
2021/07/13 07:14:24;;;;;;;7.05;4.50;;;;;;;26.56;46.77;100704.66;4387930;32;20179;-79
2021/07/13 07:16:50;;;;;;;7.60;4.40;;;;;;;26.15;47.29;100712.94;4387859;32;20025;-77
2021/07/13 07:19:16;;;;;;;5.62;3.72;;;;;;;26.49;46.86;100716.84;4385906;32;20058;-77
2021/07/13 07:21:41;;;;;;;8.93;4.22;;;;;;;26.39;45.79;100724.38;4382347;32;20108;-78
2021/07/13 07:24:08;;;;;;;7.55;5.05;;;;;;;26.03;47.62;100716.53;4385391;32;20151;-80
2021/07/13 07:26:33;;;;;;;11.70;4.40;;;;;;;26.46;47.51;100726.62;4385431;32;20128;-78
2021/07/13 07:28:59;;;;;;;12.07;5.40;;;;;;;26.81;46.69;100725.50;4389748;32;20118;-77
2021/07/13 07:31:25;;;;;;;7.95;5.10;;;;;;;26.79;46.74;100723.16;4387646;32;20206;-78
2021/07/13 07:33:51;;;;;;;9.63;4.75;;;;;;;26.82;46.37;100715.53;4386398;32;20104;-77
2021/07/13 07:36:17;;;;;;;16.98;5.68;;;;;;;26.73;46.14;100724.63;4389608;32;20050;-80
2021/07/13 07:38:43;;;;;;;10.27;4.60;;;;;;;26.90;46.28;100719.31;4389204;32;20874;-79
2021/07/13 07:41:09;;;;;;;9.68;5.15;;;;;;;26.73;46.63;100721.72;4388072;32;20129;-80
2021/07/13 07:43:34;;;;;;;12.50;5.55;;;;;;;26.65;46.54;100726.59;4389141;32;20109;-81
2021/07/13 07:46:00;;;;;;;13.25;6.07;;;;;;;26.41;47.48;100729.56;4390422;32;20042;-78
2021/07/13 07:48:26;;;;;;;10.88;5.30;;;;;;;26.47;47.03;100728.16;4388155;32;20232;-81
2021/07/13 07:50:51;;;;;;;16.80;6.37;;;;;;;26.46;47.12;100734.50;4390668;32;20062;-78
2021/07/13 07:53:17;;;;;;;14.95;5.50;;;;;;;26.19;47.81;100735.69;4390341;32;20454;-79
2021/07/13 07:55:43;;;;;;;13.73;5.55;;;;;;;26.53;46.85;100731.75;4388236;32;20169;-80
2021/07/13 07:58:09;;;;;;;10.50;6.00;;;;;;;26.20;46.92;100740.16;4389144;32;20127;-79
2021/07/13 08:00:36;;;;;;;11.63;6.55;;;;;;;26.27;46.68;100739.53;4389155;32;20039;-81
2021/07/13 08:03:02;;;;;;;11.25;6.70;;;;;;;26.57;46.68;100737.97;4385440;32;20081;-78
2021/07/13 08:05:30;;;;;;;12.68;6.30;;;;;;;26.25;46.49;100736.38;4386853;32;20074;-81
2021/07/13 08:07:55;;;;;;;13.32;6.70;;;;;;;26.51;46.35;100739.41;4391200;32;20903;-80
2021/07/13 08:10:21;;;;;;;19.27;7.95;;;;;;;26.62;46.55;100745.00;4388214;32;20168;-78
2021/07/13 08:12:47;;;;;;;13.20;6.18;;;;;;;26.58;46.57;100739.53;4390284;32;20542;-77
2021/07/13 08:15:14;;;;;;;14.43;6.68;;;;;;;26.84;46.13;100739.63;4387893;32;20096;-77
2021/07/13 08:17:41;;;;;;;11.98;6.68;;;;;;;27.23;45.09;100741.78;4391951;32;20120;-77
2021/07/13 08:20:09;;;;;;;10.43;6.15;;;;;;;27.27;44.85;100748.03;4389645;32;20104;-77
2021/07/13 08:22:36;;;;;;;14.23;6.30;;;;;;;27.55;44.73;100753.28;4390277;32;20042;-84
2021/07/13 08:25:04;;;;;;;11.35;6.03;;;;;;;27.16;45.07;100748.25;4388443;32;20103;-80
2021/07/13 08:27:30;;;;;;;6.60;5.35;;;;;;;27.40;44.45;100756.75;4390389;32;20521;-80
2021/07/13 08:29:57;;;;;;;15.75;6.30;;;;;;;27.42;44.16;100759.84;4390237;32;20086;-78
2021/07/13 08:32:23;;;;;;;12.37;5.75;;;;;;;27.52;44.10;100755.16;4388392;32;20053;-79
2021/07/13 08:34:49;;;;;;;19.02;6.32;;;;;;;27.76;43.75;100763.59;4388119;32;20144;-78
2021/07/13 08:37:15;;;;;;;12.65;6.20;;;;;;;27.81;43.68;100756.94;4388641;32;20483;-80
2021/07/13 08:39:40;;;;;;;11.43;5.47;;;;;;;27.77;43.67;100756.50;4387573;32;20107;-80
2021/07/13 08:42:09;;;;;;;12.93;6.18;;;;;;;27.80;43.39;100758.28;4389257;32;20108;-80
2021/07/13 08:44:35;;;;;;;12.35;5.82;;;;;;;28.07;43.26;100756.88;4389952;32;20077;-80
2021/07/13 08:47:01;;;;;;;13.60;7.25;;;;;;;28.12;43.23;100761.00;4388868;32;20061;-74
2021/07/13 08:49:28;;;;;;;13.20;6.97;;;;;;;28.08;43.59;100758.47;4387555;32;20054;-77
2021/07/13 08:51:54;;;;;;;15.13;6.85;;;;;;;27.69;43.83;100755.59;4387659;32;20100;-77
2021/07/13 08:54:20;;;;;;;11.55;7.03;;;;;;;27.60;43.71;100752.37;4387335;32;20042;-78
2021/07/13 08:56:47;;;;;;;14.68;7.28;;;;;;;27.77;43.39;100761.50;4386034;32;20558;-77
2021/07/13 08:59:14;;;;;;;17.92;7.28;;;;;;;27.59;43.71;100763.19;4389137;32;20442;-78
2021/07/13 09:01:42;;;;;;;15.15;6.70;;;;;;;27.86;43.82;100758.97;4388506;32;20424;-77
2021/07/13 09:04:09;;;;;;;12.82;5.87;;;;;;;27.71;42.54;100758.72;4389452;32;20087;-76
2021/07/13 09:06:57;;;;;;;8.88;5.37;;;;;;;28.28;42.77;100760.62;4386607;32;20081;-77
2021/07/13 09:15:04;;;;;;;10.57;4.95;;;;;;;29.96;39.23;100754.28;3968128;31;15015131;-76
2021/07/13 09:17:50;;;;;;;4.55;3.42;;;;;;;29.96;39.23;100754.28;4417417;32;20150;-77
2021/07/13 09:20:23;;;;;;;7.12;4.05;;;;;;;29.25;39.21;100744.75;4416162;32;20046;-77
2021/07/13 09:23:06;;;;;;;6.35;3.70;;;;;;;29.76;38.96;100752.25;4418166;32;20073;-78
2021/07/13 09:25:40;;;;;;;4.68;2.95;;;;;;;30.19;38.78;100754.41;4416843;32;20070;-79
2021/07/13 09:31:05;;;;;;;8.07;2.80;;;;;;;30.81;36.15;100760.56;3976548;32;15022853;-80
2021/07/13 09:33:32;;;;;;;6.62;3.00;;;;;;;30.81;36.15;100760.56;4422699;32;20142;-77
2021/07/13 09:38:39;;;;;;;3.90;2.25;;;;;;;31.48;35.80;100759.78;3967866;32;15727682;-75
2021/07/13 09:54:40;;;;;;;2.53;2.33;;;;;;;32.46;33.90;100777.69;3929239;32;15025907;-76
2021/07/13 09:57:23;;;;;;;;;;;;;;;32.55;33.53;100776.28;4374705;32;20145;-75
2021/07/13 09:59:52;;;;;;;4.22;2.05;;;;;;;32.65;33.62;100774.28;4374353;32;19958;-77
2021/07/13 10:02:23;;;;;;;5.57;3.12;;;;;;;32.58;33.43;100775.87;4365435;32;20043;-78
2021/07/13 10:04:50;;;;;;;4.93;2.80;;;;;;;32.56;33.40;100777.84;4362743;32;20490;-77
2021/07/13 10:07:18;;;;;;;5.35;3.00;;;;;;;32.33;33.74;100777.13;4363525;32;20097;-76
2021/07/13 10:12:25;;;;;;;5.03;3.08;;;;;;;32.59;33.13;100783.25;3958361;32;15022304;-75
2021/07/13 10:14:56;;;;;;;4.50;2.62;;;;;;;32.59;33.13;100783.25;4409155;32;20076;-74
2021/07/13 10:17:25;;;;;;;5.50;2.62;;;;;;;32.05;33.62;100775.34;4407943;32;20100;-76
2021/07/13 10:20:09;;;;;;;7.00;3.10;;;;;;;31.95;33.95;100777.34;4409738;32;20153;-79
2021/07/13 10:22:41;;;;;;;4.03;2.65;;;;;;;32.09;33.48;100784.44;4412765;32;20075;-77
2021/07/13 10:25:07;;;;;;;6.78;2.78;;;;;;;32.04;34.57;100778.84;4397269;32;20526;-78
2021/07/13 10:39:24;;;;;;;5.45;2.60;;;;;;;31.97;33.68;100785.47;3985816;32;15031924;-74
2021/07/13 10:41:55;;;;;;;5.57;3.25;;;;;;;31.97;33.68;100785.47;4440125;32;20033;-75
2021/07/13 10:47:30;;;;;;;6.45;2.30;;;;;;;31.04;34.50;100775.13;3962334;32;15263599;-75
2021/07/13 10:53:02;;;;;;;2.83;2.20;;;;;;;31.95;33.34;100791.09;3971068;32;15023290;-76
2021/07/13 11:16:36;;;;;;;4.03;2.67;;;;;;;31.79;33.48;100777.94;3972975;32;15022178;-77
2021/07/13 11:19:11;;;;;;;6.62;3.70;;;;;;;31.79;33.48;100777.94;4424960;32;20077;-76
2021/07/13 11:21:41;;;;;;;6.35;2.70;;;;;;;32.23;33.68;100785.75;4426494;32;20564;-76
2021/07/13 11:26:48;;;;;;;3.77;2.40;;;;;;;33.13;31.78;100787.34;3988293;31;15016548;-77
2021/07/13 11:29:19;;;;;;;12.35;2.58;;;;;;;33.13;31.78;100787.34;4441288;32;20168;-77
2021/07/13 11:31:52;;;;;;;3.00;2.00;;;;;;;32.60;32.27;100787.72;4443199;32;20163;-77
2021/07/13 11:34:21;;;;;;;3.60;1.90;;;;;;;32.64;30.98;100788.06;4441780;32;20092;-77
2021/07/13 11:36:50;;;;;;;8.10;1.83;;;;;;;32.80;31.28;100796.72;4445919;32;20484;-77
2021/07/13 11:39:34;;;;;;;6.72;2.12;;;;;;;32.35;31.23;100803.59;4446630;32;20079;-77
2021/07/13 11:42:05;;;;;;;8.90;1.77;;;;;;;32.70;31.30;100802.41;4442168;32;20057;-77
2021/07/13 11:44:31;;;;;;;3.75;2.03;;;;;;;32.67;31.01;100806.50;4444429;32;20052;-77
2021/07/13 11:46:57;;;;;;;6.03;2.17;;;;;;;32.59;31.02;100800.75;4445993;32;20084;-77
2021/07/13 11:49:24;;;;;;;4.30;1.85;;;;;;;32.64;31.26;100796.81;4445485;32;20095;-77
2021/07/13 11:54:28;;;;;;;7.35;2.58;;;;;;;32.80;31.01;100797.50;3975968;32;15023757;-77
2021/07/13 11:56:56;;;;;;;6.93;1.98;;;;;;;32.80;31.01;100797.50;4422992;32;20094;-75
2021/07/13 11:59:24;;;;;;;4.50;2.08;;;;;;;32.43;31.60;100799.25;4424357;32;20125;-75
2021/07/13 12:01:54;;;;;;;7.05;2.33;;;;;;;32.36;32.01;100799.28;4423190;32;20107;-76
2021/07/13 12:04:22;;;;;;;5.12;2.33;;;;;;;31.73;32.42;100801.44;4423911;32;20080;-76
2021/07/13 12:06:51;;;;;;;5.47;2.47;;;;;;;32.00;32.20;100799.63;4424747;32;20144;-76
2021/07/13 12:09:24;;;;;;;3.55;2.05;;;;;;;32.67;31.80;100791.16;4425120;32;20443;-76
2021/07/13 12:11:51;;;;;;;3.53;2.28;;;;;;;33.36;30.81;100798.81;4423527;32;20126;-75
2021/07/13 12:14:20;;;;;;;5.12;1.87;;;;;;;34.05;29.52;100792.47;4423079;32;20093;-76
2021/07/13 12:16:47;;;;;;;4.90;2.42;;;;;;;34.56;28.61;100797.47;4424282;32;20141;-76
2021/07/13 12:19:18;;;;;;;4.40;2.10;;;;;;;35.29;27.97;100807.06;4421046;32;20356;-76
2021/07/13 12:24:24;;;;;;;12.55;2.58;;;;;;;36.49;26.03;100815.69;3956931;32;15023213;-77
2021/07/13 12:26:55;;;;;;;5.32;2.50;;;;;;;36.49;26.03;100815.69;4408581;32;20417;-75
2021/07/13 12:29:23;;;;;;;3.67;2.28;;;;;;;35.63;27.54;100813.50;4407954;32;20449;-76
2021/07/13 12:31:52;;;;;;;7.28;2.55;;;;;;;34.82;28.29;100810.53;4407597;32;20199;-78
2021/07/13 12:34:22;;;;;;;5.97;3.05;;;;;;;34.89;29.11;100813.37;4410239;32;20455;-76
2021/07/13 12:37:02;;;;;;;8.40;2.95;;;;;;;34.77;28.51;100821.13;4408741;32;20091;-76
2021/07/13 12:39:29;;;;;;;4.65;2.40;;;;;;;34.60;28.87;100824.09;4407237;32;20039;-76
2021/07/13 12:42:02;;;;;;;6.05;2.95;;;;;;;34.16;29.02;100821.16;4408535;32;20642;-77
2021/07/13 12:44:31;;;;;;;6.70;3.37;;;;;;;33.94;29.36;100818.50;4406608;32;20069;-76
2021/07/13 12:50:13;;;;;;;8.33;2.93;;;;;;;34.86;28.23;100823.37;3970682;32;15022313;-76
2021/07/13 12:53:02;;;;;;;7.03;2.62;;;;;;;34.86;28.23;100823.37;4428396;32;20166;-75
2021/07/13 12:55:38;;;;;;;7.30;3.10;;;;;;;34.52;28.00;100816.81;4425422;32;20134;-76
2021/07/13 12:58:22;;;;;;;5.75;2.80;;;;;;;34.38;28.51;100813.50;4425504;32;21430;-76
2021/07/13 13:00:52;;;;;;;7.22;2.80;;;;;;;35.23;27.78;100819.06;4424829;32;20087;-76
2021/07/13 13:03:22;;;;;;;6.75;2.47;;;;;;;36.22;26.87;100822.50;4409226;32;20110;-75
2021/07/13 13:05:54;;;;;;;4.87;2.78;;;;;;;37.17;25.72;100820.75;4409889;32;20078;-76
2021/07/13 13:08:22;;;;;;;6.28;2.47;;;;;;;38.90;24.03;100816.63;4414102;32;20238;-78
2021/07/13 13:10:52;;;;;;;3.50;2.53;;;;;;;39.76;21.84;100824.34;4413791;32;20073;-78
2021/07/13 13:13:35;;;;;;;3.78;2.50;;;;;;;40.47;21.45;100838.25;4414210;32;20132;-79
2021/07/13 13:16:04;;;;;;;2.62;2.25;;;;;;;40.96;20.57;100830.81;4417386;32;20034;-76
2021/07/13 13:18:34;;;;;;;4.03;2.15;;;;;;;41.54;20.45;100836.28;4411392;32;20249;-77